createdAt,value
2022-12-09T00:00:25.184Z,48.14
2022-12-09T00:01:25.289Z,47.36
2022-12-09T00:02:25.408Z,47.97
2022-12-09T00:03:25.332Z,47
2022-12-09T00:04:25.359Z,47.4
2022-12-09T00:05:25.201Z,47.8
2022-12-09T00:06:25.180Z,47.86
2022-12-09T00:07:25.262Z,47.86
2022-12-09T00:08:25.305Z,47.07
2022-12-09T00:09:25.225Z,47.84
2022-12-09T00:10:25.411Z,47.71
2022-12-09T00:11:25.314Z,47.5
2022-12-09T00:12:25.352Z,47.17
2022-12-09T00:13:25.231Z,47.96
2022-12-09T00:14:25.178Z,47.96
2022-12-09T00:15:25.344Z,48.41
2022-12-09T00:16:25.457Z,48.14
2022-12-09T00:17:25.489Z,47.95
2022-12-09T00:18:25.197Z,47.64
2022-12-09T00:19:25.189Z,47.36
2022-12-09T00:20:25.440Z,47.32
2022-12-09T00:21:25.181Z,47.48
2022-12-09T00:22:25.175Z,47.16
2022-12-09T00:23:25.184Z,47.54
2022-12-09T00:24:25.302Z,47.09
2022-12-09T00:25:25.190Z,47.46
2022-12-09T00:26:25.402Z,46.87
2022-12-09T00:27:25.177Z,47.36
2022-12-09T00:28:25.174Z,47
2022-12-09T00:29:25.178Z,47.47
2022-12-09T00:30:25.433Z,47.75
2022-12-09T00:31:25.422Z,47.19
2022-12-09T00:32:25.413Z,47.53
2022-12-09T00:33:25.183Z,47.03
2022-12-09T00:34:25.246Z,48.29
2022-12-09T00:35:25.202Z,47.73
2022-12-09T00:36:25.225Z,47.24
2022-12-09T00:37:25.161Z,47.36
2022-12-09T00:38:25.469Z,47.25
2022-12-09T00:39:25.193Z,47.25
2022-12-09T00:40:25.190Z,47.12
2022-12-09T00:41:25.184Z,47.5
2022-12-09T00:42:25.260Z,47.14
2022-12-09T00:43:25.419Z,47.14
2022-12-09T00:44:25.167Z,47.3
2022-12-09T00:45:25.199Z,47.62
2022-12-09T00:46:25.333Z,47.07
2022-12-09T00:47:25.335Z,43.64
2022-12-09T00:48:25.165Z,47.38
2022-12-09T00:49:25.273Z,47.15
2022-12-09T00:50:25.342Z,47.39
2022-12-09T00:51:25.239Z,47.5
2022-12-09T00:52:25.335Z,47.47
2022-12-09T00:53:25.167Z,47.7
2022-12-09T00:54:25.284Z,47.72
2022-12-09T00:55:25.443Z,47.31
2022-12-09T00:56:25.428Z,47.64
2022-12-09T00:57:25.270Z,47.71
2022-12-09T00:58:25.165Z,47.91
2022-12-09T00:59:25.189Z,47.38
2022-12-09T01:00:25.189Z,47.74
2022-12-09T01:01:25.289Z,47.65
2022-12-09T01:02:25.455Z,47.39
2022-12-09T01:03:25.328Z,47.06
2022-12-09T01:04:25.587Z,47.11
2022-12-09T01:05:25.308Z,47.13
2022-12-09T01:06:25.192Z,47.74
2022-12-09T01:07:25.242Z,46.58
2022-12-09T01:08:25.323Z,47.03
2022-12-09T01:09:25.440Z,48.76
2022-12-09T01:10:25.339Z,47.5
2022-12-09T01:11:25.324Z,47.24
2022-12-09T01:12:25.184Z,48.57
2022-12-09T01:13:25.348Z,47.51
2022-12-09T01:14:25.339Z,47.42
2022-12-09T01:15:25.405Z,48.35
2022-12-09T01:16:25.246Z,48.19
2022-12-09T01:17:25.312Z,47.8
2022-12-09T01:18:25.319Z,48.1
2022-12-09T01:19:25.346Z,48.72
2022-12-09T01:20:25.225Z,49.43
2022-12-09T01:21:25.223Z,48.56
2022-12-09T01:22:25.185Z,48.97
2022-12-09T01:23:25.437Z,48.46
2022-12-09T01:24:25.406Z,47.81
2022-12-09T01:25:25.250Z,47.21
2022-12-09T01:26:25.346Z,47.39
2022-12-09T01:27:25.494Z,47.83
2022-12-09T01:28:25.325Z,47.48
2022-12-09T01:29:25.196Z,46.77
2022-12-09T01:30:25.365Z,47.71
2022-12-09T01:31:25.317Z,48.28
2022-12-09T01:32:25.358Z,47.22
2022-12-09T01:33:25.304Z,46.98
2022-12-09T01:34:25.165Z,46.98
2022-12-09T01:35:25.597Z,45.99
2022-12-09T01:36:25.524Z,44.98
2022-12-09T01:37:25.434Z,45.57
2022-12-09T01:38:25.171Z,45.75
2022-12-09T01:39:25.229Z,46.54
2022-12-09T01:40:25.190Z,45.81
2022-12-09T01:41:25.187Z,45.56
2022-12-09T01:42:25.181Z,45.3
2022-12-09T01:43:25.159Z,45.38
2022-12-09T01:44:25.427Z,45.75
2022-12-09T01:45:25.298Z,46.16
2022-12-09T01:46:25.347Z,46.01
2022-12-09T01:47:25.206Z,46.23
2022-12-09T01:48:25.167Z,46.13
2022-12-09T01:49:25.278Z,46.13
2022-12-09T01:50:25.324Z,46.2
2022-12-09T01:51:25.192Z,45.38
2022-12-09T01:52:25.163Z,45.67
2022-12-09T01:53:25.213Z,45.25
2022-12-09T01:54:25.208Z,45.94
2022-12-09T01:55:25.360Z,46.54
2022-12-09T01:56:25.555Z,45.51
2022-12-09T01:57:25.185Z,45.64
2022-12-09T01:58:25.227Z,45.86
2022-12-09T01:59:25.390Z,45.79
2022-12-09T02:00:25.243Z,46.43
2022-12-09T02:01:25.329Z,46.99
2022-12-09T02:02:25.380Z,46.08
2022-12-09T02:03:25.644Z,46.08
2022-12-09T02:04:25.508Z,46.57
2022-12-09T02:05:25.358Z,45.83
2022-12-09T02:06:25.228Z,45.93
2022-12-09T02:07:25.186Z,46.28
2022-12-09T02:08:25.600Z,46.34
2022-12-09T02:09:25.245Z,45.89
2022-12-09T02:10:25.236Z,45.59
2022-12-09T02:11:25.531Z,45.77
2022-12-09T02:12:25.443Z,45.71
2022-12-09T02:13:25.173Z,45.96
2022-12-09T02:14:25.195Z,45.1
2022-12-09T02:15:25.253Z,45.92
2022-12-09T02:16:25.192Z,45.98
2022-12-09T02:17:25.355Z,46.78
2022-12-09T02:18:25.225Z,45.53
2022-12-09T02:19:25.173Z,46.37
2022-12-09T02:20:25.429Z,46.76
2022-12-09T02:21:25.170Z,45.6
2022-12-09T02:22:25.171Z,45.71
2022-12-09T02:23:25.195Z,45.72
2022-12-09T02:24:25.194Z,45.42
2022-12-09T02:25:25.192Z,46.47
2022-12-09T02:26:25.180Z,47.2
2022-12-09T02:27:25.217Z,46.64
2022-12-09T02:28:25.384Z,46.55
2022-12-09T02:29:25.488Z,46.55
2022-12-09T02:30:25.202Z,46.55
2022-12-09T02:31:25.609Z,47.31
2022-12-09T02:32:25.233Z,47.07
2022-12-09T02:33:25.625Z,47.61
2022-12-09T02:34:25.170Z,48.04
2022-12-09T02:35:25.251Z,49.35
2022-12-09T02:36:25.175Z,47.96
2022-12-09T02:37:25.293Z,48.82
2022-12-09T02:38:25.334Z,48.24
2022-12-09T02:39:25.179Z,48.5
2022-12-09T02:40:25.191Z,48.77
2022-12-09T02:41:25.180Z,48.68
2022-12-09T02:42:25.318Z,48.26
2022-12-09T02:43:25.432Z,48.43
2022-12-09T02:44:25.168Z,47.56
2022-12-09T02:45:25.183Z,49.13
2022-12-09T02:46:25.224Z,47.98
2022-12-09T02:47:25.349Z,47.64
2022-12-09T02:48:25.260Z,49.24
2022-12-09T02:49:25.173Z,49
2022-12-09T02:50:25.416Z,49.35
2022-12-09T02:51:25.222Z,49
2022-12-09T02:52:25.319Z,49.35
2022-12-09T02:53:25.197Z,49.95
2022-12-09T02:54:25.182Z,49.61
2022-12-09T02:55:25.187Z,48.83
2022-12-09T02:56:25.371Z,48.42
2022-12-09T02:57:25.331Z,48.25
2022-12-09T02:58:25.313Z,48.62
2022-12-09T02:59:25.194Z,49.07
2022-12-09T03:00:25.180Z,49.11
2022-12-09T03:01:25.284Z,49.64
2022-12-09T03:02:25.370Z,48.59
2022-12-09T03:03:25.334Z,47.69
2022-12-09T03:04:25.580Z,48.24
2022-12-09T03:05:25.204Z,48.84
2022-12-09T03:06:25.150Z,47.45
2022-12-09T03:07:25.364Z,47.44
2022-12-09T03:08:25.540Z,46.77
2022-12-09T03:09:25.208Z,47.31
2022-12-09T03:10:25.292Z,47.18
2022-12-09T03:11:25.482Z,47.94
2022-12-09T03:12:25.200Z,48.09
2022-12-09T03:13:25.159Z,47.65
2022-12-09T03:14:25.358Z,48.09
2022-12-09T03:15:25.186Z,47.75
2022-12-09T03:16:25.280Z,48.66
2022-12-09T03:17:25.327Z,47.93
2022-12-09T03:18:25.533Z,47.43
2022-12-09T03:19:25.323Z,47.71
2022-12-09T03:20:25.173Z,48.3
2022-12-09T03:21:25.453Z,48.26
2022-12-09T03:22:25.480Z,48.3
2022-12-09T03:23:25.194Z,47.88
2022-12-09T03:24:25.508Z,48.4
2022-12-09T03:25:25.543Z,47.9
2022-12-09T03:26:25.204Z,48.37
2022-12-09T03:27:25.478Z,48.76
2022-12-09T03:28:25.520Z,48.37
2022-12-09T03:29:25.583Z,48.46
2022-12-09T03:30:25.206Z,48.77
2022-12-09T03:31:25.659Z,49.29
2022-12-09T03:32:25.478Z,49.34
2022-12-09T03:33:25.212Z,48.87
2022-12-09T03:34:25.173Z,48.53
2022-12-09T03:35:25.377Z,48.12
2022-12-09T03:36:25.173Z,47.99
2022-12-09T03:37:25.566Z,47.97
2022-12-09T03:38:25.453Z,48.27
2022-12-09T03:39:25.260Z,48.53
2022-12-09T03:40:25.641Z,48.62
2022-12-09T03:41:25.573Z,48.21
2022-12-09T03:42:25.210Z,48.94
2022-12-09T03:43:25.182Z,48.38
2022-12-09T03:44:25.452Z,48.24
2022-12-09T03:45:25.528Z,48.49
2022-12-09T03:46:25.301Z,49.07
2022-12-09T03:47:25.226Z,48.38
2022-12-09T03:48:25.560Z,48.83
2022-12-09T03:49:25.421Z,48.47
2022-12-09T03:50:25.221Z,48.91
2022-12-09T03:51:25.174Z,48.91
2022-12-09T03:52:25.200Z,48.29
2022-12-09T03:53:25.167Z,48.8
2022-12-09T03:54:25.495Z,49.07
2022-12-09T03:55:25.186Z,48.66
2022-12-09T03:56:25.197Z,49
2022-12-09T03:57:25.173Z,48.86
2022-12-09T03:58:25.173Z,49.21
2022-12-09T03:59:25.171Z,49.84
2022-12-09T04:00:25.189Z,49.85
2022-12-09T04:01:25.230Z,49.33
2022-12-09T04:02:25.428Z,48.77
2022-12-09T04:03:25.388Z,48.01
2022-12-09T04:04:25.341Z,48.73
2022-12-09T04:05:25.376Z,48.86
2022-12-09T04:06:25.310Z,49.88
2022-12-09T04:07:25.498Z,50.32
2022-12-09T04:08:25.413Z,49.34
2022-12-09T04:09:25.342Z,48.6
2022-12-09T04:10:25.517Z,48.6
2022-12-09T04:11:25.156Z,49.09
2022-12-09T04:12:25.153Z,48.3
2022-12-09T04:13:25.155Z,48.05
2022-12-09T04:14:25.466Z,48.49
2022-12-09T04:15:25.221Z,48.65
2022-12-09T04:16:25.242Z,48.06
2022-12-09T04:17:25.642Z,47.77
2022-12-09T04:18:25.520Z,48.44
2022-12-09T04:19:25.355Z,48.11
2022-12-09T04:20:25.235Z,47.85
2022-12-09T04:21:25.157Z,47.66
2022-12-09T04:22:25.165Z,48.45
2022-12-09T04:23:25.221Z,48.78
2022-12-09T04:24:25.156Z,48.78
2022-12-09T04:25:25.588Z,47.98
2022-12-09T04:26:25.151Z,47.7
2022-12-09T04:27:25.261Z,47.49
2022-12-09T04:28:25.379Z,47.76
2022-12-09T04:29:25.331Z,47.85
2022-12-09T04:30:25.520Z,47.52
2022-12-09T04:31:25.220Z,48.74
2022-12-09T04:32:25.287Z,41.03
2022-12-09T04:33:25.236Z,48.38
2022-12-09T04:34:25.302Z,48.4
2022-12-09T04:35:25.179Z,47.98
2022-12-09T04:36:25.197Z,47.85
2022-12-09T04:37:25.220Z,48.4
2022-12-09T04:38:25.279Z,47.67
2022-12-09T04:39:25.207Z,47.89
2022-12-09T04:40:25.436Z,47.4
2022-12-09T04:41:25.271Z,47.54
2022-12-09T04:42:25.471Z,48.5
2022-12-09T04:43:25.179Z,48.62
2022-12-09T04:44:25.354Z,47.79
2022-12-09T04:45:25.649Z,48.04
2022-12-09T04:46:25.379Z,48.39
2022-12-09T04:47:25.288Z,47.69
2022-12-09T04:48:25.312Z,47.15
2022-12-09T04:49:25.173Z,48.04
2022-12-09T04:50:25.187Z,48.78
2022-12-09T04:51:25.310Z,48.86
2022-12-09T04:52:25.325Z,49.37
2022-12-09T04:53:25.165Z,48.77
2022-12-09T04:54:25.431Z,48.33
2022-12-09T04:55:25.352Z,47.5
2022-12-09T04:56:25.166Z,47.43
2022-12-09T04:57:25.167Z,47.35
2022-12-09T04:58:25.443Z,47.86
2022-12-09T04:59:25.163Z,48.27
2022-12-09T05:00:25.295Z,47.7
2022-12-09T05:01:30.142Z,48.05
2022-12-09T05:02:25.344Z,47.14
2022-12-09T05:03:25.480Z,47.82
2022-12-09T05:04:25.602Z,48.2
2022-12-09T05:05:25.646Z,47.87
2022-12-09T05:06:25.326Z,48.2
2022-12-09T05:07:25.407Z,48.14
2022-12-09T05:08:31.238Z,48.64
2022-12-09T05:09:25.333Z,48.54
2022-12-09T05:10:25.308Z,49.06
2022-12-09T05:11:25.451Z,49.52
2022-12-09T05:12:25.318Z,48.59
2022-12-09T05:13:25.323Z,49.2
2022-12-09T05:14:25.287Z,49.45
2022-12-09T05:15:25.291Z,49.27
2022-12-09T05:16:25.604Z,49.33
2022-12-09T05:17:25.493Z,49.33
2022-12-09T05:18:25.686Z,49.36
2022-12-09T05:19:25.318Z,49.28
2022-12-09T05:20:25.335Z,48.91
2022-12-09T05:21:25.333Z,49.13
2022-12-09T05:22:25.543Z,49.95
2022-12-09T05:23:25.462Z,48.74
2022-12-09T05:24:25.467Z,49.02
2022-12-09T05:25:25.540Z,49.03
2022-12-09T05:26:25.757Z,49.87
2022-12-09T05:27:25.545Z,49.53
2022-12-09T05:28:25.228Z,49.39
2022-12-09T05:29:25.430Z,49.19
2022-12-09T05:30:25.176Z,49.71
2022-12-09T05:31:25.354Z,49.95
2022-12-09T05:32:25.472Z,51.6
2022-12-09T05:33:25.279Z,50.77
2022-12-09T05:34:25.325Z,51.05
2022-12-09T05:35:25.590Z,50.08
2022-12-09T05:36:25.488Z,49.59
2022-12-09T05:37:25.274Z,49.64
2022-12-09T05:38:25.192Z,49.35
2022-12-09T05:39:25.193Z,49.34
2022-12-09T05:40:25.391Z,49.44
2022-12-09T05:41:25.356Z,49.51
2022-12-09T05:42:25.380Z,49.7
2022-12-09T05:43:25.443Z,48.87
2022-12-09T05:44:25.174Z,49.15
2022-12-09T05:45:25.192Z,48.87
2022-12-09T05:46:25.216Z,49.1
2022-12-09T05:47:25.594Z,50.23
2022-12-09T05:48:25.676Z,49.23
2022-12-09T05:49:25.467Z,49.65
2022-12-09T05:50:25.687Z,49.43
2022-12-09T05:51:25.463Z,49.4
2022-12-09T05:52:25.182Z,48.48
2022-12-09T05:53:25.358Z,48.16
2022-12-09T05:54:25.243Z,48.1
2022-12-09T05:55:25.800Z,48.48
2022-12-09T05:56:25.594Z,49.11
2022-12-09T05:57:25.624Z,49.27
2022-12-09T05:58:25.237Z,49
2022-12-09T05:59:25.454Z,48.59
2022-12-09T06:00:25.275Z,49.28
2022-12-09T06:01:25.252Z,49.78
2022-12-09T06:02:25.516Z,48.69
2022-12-09T06:03:25.500Z,49.29
2022-12-09T06:04:25.412Z,49.08
2022-12-09T06:05:25.610Z,49.06
2022-12-09T06:06:25.581Z,49.2
2022-12-09T06:07:25.396Z,50.15
2022-12-09T06:08:25.379Z,49.8
2022-12-09T06:09:25.687Z,50.36
2022-12-09T06:10:25.666Z,50.62
2022-12-09T06:11:25.837Z,50.74
2022-12-09T06:12:25.226Z,50.26
2022-12-09T06:13:25.224Z,49.89
2022-12-09T06:14:25.255Z,49.93
2022-12-09T06:15:31.212Z,49.45
2022-12-09T06:16:25.823Z,49.98
2022-12-09T06:17:25.559Z,49.14
2022-12-09T06:18:25.350Z,50.22
2022-12-09T06:19:25.390Z,49.91
2022-12-09T06:20:25.267Z,50.14
2022-12-09T06:21:25.267Z,50.14
2022-12-09T06:22:25.339Z,50.88
2022-12-09T06:23:25.340Z,51.39
2022-12-09T06:24:25.190Z,51.4
2022-12-09T06:25:25.414Z,51.27
2022-12-09T06:26:25.452Z,51.41
2022-12-09T06:27:25.271Z,51.58
2022-12-09T06:28:25.177Z,51.71
2022-12-09T06:29:25.252Z,51.85
2022-12-09T06:30:25.311Z,51.9
2022-12-09T06:31:25.803Z,52.8
2022-12-09T06:32:25.355Z,52.11
2022-12-09T06:33:53.145Z,52.38
2022-12-09T06:34:25.451Z,53.1
2022-12-09T06:35:25.353Z,54.59
2022-12-09T06:36:25.549Z,52.62
2022-12-09T06:37:25.239Z,52.36
2022-12-09T06:38:25.487Z,52.77
2022-12-09T06:39:25.203Z,52.6
2022-12-09T06:40:25.420Z,52.36
2022-12-09T06:41:25.479Z,52.92
2022-12-09T06:42:25.380Z,52.92
2022-12-09T06:43:25.334Z,52.1
2022-12-09T06:44:25.234Z,52.82
2022-12-09T06:45:25.339Z,52.87
2022-12-09T06:46:25.380Z,52.64
2022-12-09T06:47:25.656Z,52.6
2022-12-09T06:48:25.672Z,52.53
2022-12-09T06:49:25.599Z,52.58
2022-12-09T06:50:25.391Z,53.39
2022-12-09T06:51:25.421Z,53.97
2022-12-09T06:52:25.327Z,50.3
2022-12-09T06:53:25.333Z,53.13
2022-12-09T06:54:25.487Z,53.23
2022-12-09T06:55:25.487Z,52.78
2022-12-09T06:56:25.517Z,53.5
2022-12-09T06:57:25.603Z,53.57
2022-12-09T06:58:25.512Z,53.5
2022-12-09T06:59:25.478Z,53.39
2022-12-09T07:00:25.358Z,53.22
2022-12-09T07:01:25.907Z,53.48
2022-12-09T07:02:25.553Z,54.22
2022-12-09T07:03:25.629Z,53.95
2022-12-09T07:04:25.787Z,53.4
2022-12-09T07:05:25.933Z,53.82
2022-12-09T07:06:25.394Z,53.92
2022-12-09T07:07:25.228Z,53.86
2022-12-09T07:08:25.642Z,54.5
2022-12-09T07:09:25.439Z,54.5
2022-12-09T07:10:25.290Z,54.5
2022-12-09T07:11:25.725Z,54.35
2022-12-09T07:12:25.167Z,53.75
2022-12-09T07:13:25.379Z,53.5
2022-12-09T07:14:25.249Z,53.71
2022-12-09T07:15:25.302Z,53.74
2022-12-09T07:16:25.828Z,53.66
2022-12-09T07:17:25.572Z,54.21
2022-12-09T07:18:25.256Z,54.15
2022-12-09T07:19:25.546Z,54.04
2022-12-09T07:20:25.286Z,54.03
2022-12-09T07:21:25.581Z,54.07
2022-12-09T07:22:25.476Z,54.07
2022-12-09T07:23:25.463Z,53.85
2022-12-09T07:24:25.418Z,53.53
2022-12-09T07:25:25.625Z,53.71
2022-12-09T07:26:25.176Z,53.51
2022-12-09T07:27:25.197Z,54.09
2022-12-09T07:28:25.568Z,53.96
2022-12-09T07:29:25.317Z,53.38
2022-12-09T07:30:25.619Z,53.24
2022-12-09T07:31:25.602Z,54.1
2022-12-09T07:32:25.236Z,53.52
2022-12-09T07:33:25.576Z,53.35
2022-12-09T07:34:25.397Z,53.6
2022-12-09T07:35:25.364Z,53.72
2022-12-09T07:36:25.293Z,54.33
2022-12-09T07:37:25.235Z,53.59
2022-12-09T07:38:25.694Z,54.02
2022-12-09T07:39:25.277Z,54
2022-12-09T07:40:25.181Z,53.81
2022-12-09T07:41:25.353Z,54.1
2022-12-09T07:42:25.231Z,55.25
2022-12-09T07:43:25.408Z,55.25
2022-12-09T07:44:25.368Z,54.28
2022-12-09T07:45:25.593Z,54.85
2022-12-09T07:46:25.244Z,53.79
2022-12-09T07:47:25.580Z,53.64
2022-12-09T07:48:25.465Z,53.97
2022-12-09T07:49:25.758Z,54.34
2022-12-09T07:50:25.364Z,53.89
2022-12-09T07:51:25.302Z,53.54
2022-12-09T07:52:25.343Z,54.16
2022-12-09T07:53:25.438Z,53.47
2022-12-09T07:54:25.316Z,53.15
2022-12-09T07:55:25.672Z,53.31
2022-12-09T07:56:25.568Z,53.39
2022-12-09T07:57:25.564Z,52.56
2022-12-09T07:58:25.228Z,52.51
2022-12-09T07:59:25.390Z,52.67
2022-12-09T08:00:25.211Z,52.63
2022-12-09T08:01:25.385Z,52.93
2022-12-09T08:02:25.243Z,52.73
2022-12-09T08:03:25.452Z,52.93
2022-12-09T08:04:25.487Z,52.52
2022-12-09T08:05:25.631Z,53.65
2022-12-09T08:06:25.764Z,52.94
2022-12-09T08:07:25.711Z,52.91
2022-12-09T08:08:25.546Z,53.56
2022-12-09T08:09:25.494Z,52.71
2022-12-09T08:10:25.419Z,53.25
2022-12-09T08:11:25.559Z,53.42
2022-12-09T08:12:25.512Z,52.82
2022-12-09T08:13:25.452Z,52.54
2022-12-09T08:14:25.328Z,53.49
2022-12-09T08:15:25.548Z,53.17
2022-12-09T08:16:25.748Z,53.31
2022-12-09T08:17:25.348Z,52.61
2022-12-09T08:18:25.345Z,52.82
2022-12-09T08:19:25.450Z,52.07
2022-12-09T08:20:29.005Z,52.87
2022-12-09T08:21:25.575Z,52.52
2022-12-09T08:22:25.465Z,52.99
2022-12-09T08:23:25.635Z,52.16
2022-12-09T08:24:25.472Z,52.27
2022-12-09T08:25:25.268Z,52.41
2022-12-09T08:26:25.548Z,52.46
2022-12-09T08:27:25.438Z,52.45
2022-12-09T08:28:25.466Z,51.97
2022-12-09T08:29:25.237Z,53.05
2022-12-09T08:30:25.466Z,51.91
2022-12-09T08:31:25.684Z,52.73
2022-12-09T08:32:25.693Z,52.84
2022-12-09T08:33:25.418Z,53.39
2022-12-09T08:34:25.556Z,52.74
2022-12-09T08:35:25.618Z,53.06
2022-12-09T08:36:25.578Z,52.14
2022-12-09T08:37:25.356Z,52.01
2022-12-09T08:38:25.191Z,52.02
2022-12-09T08:39:25.211Z,52.93
2022-12-09T08:40:25.392Z,52.49
2022-12-09T08:41:25.173Z,51.99
2022-12-09T08:42:25.539Z,52.69
2022-12-09T08:43:25.203Z,52.69
2022-12-09T08:44:25.323Z,52.89
2022-12-09T08:45:25.611Z,52.39
2022-12-09T08:46:25.666Z,53
2022-12-09T08:47:25.335Z,53.34
2022-12-09T08:48:25.581Z,53.6
2022-12-09T08:49:25.304Z,53.81
2022-12-09T08:50:25.674Z,53.71
2022-12-09T08:51:25.538Z,53.71
2022-12-09T08:52:25.454Z,53.94
2022-12-09T08:53:25.250Z,53.38
2022-12-09T08:54:25.618Z,53.21
2022-12-09T08:55:25.331Z,53.09
2022-12-09T08:56:25.189Z,54.34
2022-12-09T08:57:25.170Z,53.9
2022-12-09T08:58:25.205Z,53.63
2022-12-09T08:59:25.418Z,54.14
2022-12-09T09:00:25.283Z,53.46
2022-12-09T09:01:25.330Z,53.41
2022-12-09T09:02:25.445Z,53.41
2022-12-09T09:03:25.517Z,52.78
2022-12-09T09:04:25.410Z,52.56
2022-12-09T09:05:25.906Z,52.62
2022-12-09T09:06:25.442Z,52.75
2022-12-09T09:07:25.557Z,52.44
2022-12-09T09:08:25.318Z,52.24
2022-12-09T09:09:25.484Z,52.37
2022-12-09T09:10:25.852Z,52.64
2022-12-09T09:11:25.431Z,52.95
2022-12-09T09:12:25.420Z,52.7
2022-12-09T09:13:25.195Z,52.45
2022-12-09T09:14:25.223Z,52.46
2022-12-09T09:15:25.260Z,51.89
2022-12-09T09:16:25.660Z,51.6
2022-12-09T09:17:25.602Z,51.63
2022-12-09T09:18:25.297Z,52.54
2022-12-09T09:19:25.710Z,51.89
2022-12-09T09:20:25.697Z,51.78
2022-12-09T09:21:25.579Z,51.72
2022-12-09T09:22:25.492Z,52.18
2022-12-09T09:23:25.592Z,52.1
2022-12-09T09:24:25.397Z,51.97
2022-12-09T09:25:25.555Z,51.43
2022-12-09T09:26:25.340Z,51.52
2022-12-09T09:27:25.615Z,51.67
2022-12-09T09:28:30.680Z,51.97
2022-12-09T09:29:25.595Z,52.06
2022-12-09T09:30:25.413Z,52.17
2022-12-09T09:31:25.373Z,52.02
2022-12-09T09:32:25.632Z,52.51
2022-12-09T09:33:25.686Z,51.6
2022-12-09T09:34:25.325Z,52.15
2022-12-09T09:35:25.312Z,52.21
2022-12-09T09:36:25.700Z,51.94
2022-12-09T09:37:25.216Z,51.91
2022-12-09T09:38:25.702Z,51.2
2022-12-09T09:39:25.751Z,51.64
2022-12-09T09:40:25.794Z,51.55
2022-12-09T09:41:25.539Z,51.51
2022-12-09T09:42:25.380Z,51.42
2022-12-09T09:43:25.211Z,51.53
2022-12-09T09:44:25.576Z,52.02
2022-12-09T09:45:25.610Z,51.91
2022-12-09T09:46:25.692Z,52.27
2022-12-09T09:47:25.272Z,52.27
2022-12-09T09:48:25.313Z,51.82
2022-12-09T09:49:25.578Z,52.02
2022-12-09T09:50:25.538Z,51.9
2022-12-09T09:51:25.412Z,51.91
2022-12-09T09:52:25.412Z,51.74
2022-12-09T09:53:25.395Z,52.1
2022-12-09T09:54:25.545Z,52.52
2022-12-09T09:55:25.245Z,52.32
2022-12-09T09:56:25.505Z,51.99
2022-12-09T09:57:25.607Z,51.29
2022-12-09T09:58:25.501Z,51.43
2022-12-09T09:59:25.513Z,51.02
2022-12-09T10:00:26.274Z,51.24
2022-12-09T10:01:25.694Z,49.1
2022-12-09T10:02:25.596Z,51.61
2022-12-09T10:03:25.430Z,51.96
2022-12-09T10:04:25.604Z,51.61
2022-12-09T10:05:25.532Z,50.9
2022-12-09T10:06:25.873Z,51.68
2022-12-09T10:07:25.410Z,51.02
2022-12-09T10:08:25.801Z,50.66
2022-12-09T10:09:25.729Z,50.91
2022-12-09T10:10:25.914Z,51.05
2022-12-09T10:11:25.906Z,51.26
2022-12-09T10:12:25.867Z,51.63
2022-12-09T10:13:25.554Z,51.53
2022-12-09T10:14:25.593Z,50.84
2022-12-09T10:15:25.225Z,50.84
2022-12-09T10:16:25.352Z,50.99
2022-12-09T10:17:25.315Z,51.45
2022-12-09T10:18:25.264Z,51.22
2022-12-09T10:19:25.266Z,51.14
2022-12-09T10:20:25.615Z,51.16
2022-12-09T10:21:25.187Z,50.98
2022-12-09T10:22:25.642Z,51.09
2022-12-09T10:23:25.343Z,50.75
2022-12-09T10:24:25.331Z,50.72
2022-12-09T10:25:25.756Z,50.55
2022-12-09T10:26:25.651Z,50.44
2022-12-09T10:27:25.199Z,50.71
2022-12-09T10:28:25.374Z,50.53
2022-12-09T10:29:25.281Z,50.19
2022-12-09T10:30:28.919Z,49.94
2022-12-09T10:31:25.305Z,50.39
2022-12-09T10:32:25.675Z,50.31
2022-12-09T10:33:25.260Z,50.37
2022-12-09T10:34:25.701Z,49.79
2022-12-09T10:35:25.771Z,49.65
2022-12-09T10:36:29.295Z,49.93
2022-12-09T10:37:25.228Z,49.68
2022-12-09T10:38:25.499Z,49.68
2022-12-09T10:39:25.531Z,50.01
2022-12-09T10:40:25.669Z,49.92
2022-12-09T10:41:25.606Z,50.74
2022-12-09T10:42:29.575Z,51.1
2022-12-09T10:43:25.477Z,51.59
2022-12-09T10:44:25.419Z,51.84
2022-12-09T10:45:32.109Z,51.53
2022-12-09T10:46:25.654Z,51.38
2022-12-09T10:47:25.873Z,51.45
2022-12-09T10:48:29.577Z,50.9
2022-12-09T10:49:25.374Z,51.14
2022-12-09T10:50:25.616Z,51.46
2022-12-09T10:51:25.812Z,51.07
2022-12-09T10:52:25.668Z,51.88
2022-12-09T10:53:25.312Z,51.31
2022-12-09T10:54:25.183Z,51.17
2022-12-09T10:55:25.669Z,51.43
2022-12-09T10:56:25.320Z,51.83
2022-12-09T10:57:25.305Z,51.96
2022-12-09T10:58:25.662Z,51.19
2022-12-09T10:59:25.748Z,50.76
2022-12-09T11:00:29.601Z,51.57
2022-12-09T11:01:25.322Z,51.83
2022-12-09T11:02:25.540Z,51.87
2022-12-09T11:03:25.571Z,51.18
2022-12-09T11:04:25.637Z,50.77
2022-12-09T11:05:25.523Z,51.19
2022-12-09T11:06:25.996Z,51.29
2022-12-09T11:07:25.825Z,51.43
2022-12-09T11:08:25.489Z,51.06
2022-12-09T11:09:25.353Z,51.54
2022-12-09T11:10:25.728Z,51.18
2022-12-09T11:11:25.575Z,51.14
2022-12-09T11:12:25.724Z,50.99
2022-12-09T11:13:25.421Z,51.34
2022-12-09T11:14:25.685Z,51.33
2022-12-09T11:15:25.595Z,51.3
2022-12-09T11:16:25.336Z,51.16
2022-12-09T11:17:25.346Z,50.97
2022-12-09T11:18:25.655Z,51.39
2022-12-09T11:19:25.386Z,51.27
2022-12-09T11:20:25.603Z,50.82
2022-12-09T11:21:25.289Z,50.56
2022-12-09T11:22:25.387Z,50.56
2022-12-09T11:23:25.516Z,50.59
2022-12-09T11:24:25.253Z,50.71
2022-12-09T11:25:25.701Z,50.96
2022-12-09T11:26:25.267Z,51.12
2022-12-09T11:27:25.321Z,50.71
2022-12-09T11:28:25.380Z,50.76
2022-12-09T11:29:25.497Z,51.43
2022-12-09T11:30:25.527Z,51.39
2022-12-09T11:31:29.963Z,50.76
2022-12-09T11:32:25.412Z,51.33
2022-12-09T11:33:25.369Z,51.32
2022-12-09T11:34:25.385Z,47.75
2022-12-09T11:35:25.809Z,50.35
2022-12-09T11:36:26.441Z,50.83
2022-12-09T11:37:25.167Z,50.58
2022-12-09T11:38:25.167Z,50.57
2022-12-09T11:39:25.186Z,50
2022-12-09T11:40:25.193Z,49.88
2022-12-09T11:41:25.181Z,49.3
2022-12-09T11:42:25.182Z,49.04
2022-12-09T11:43:25.270Z,48.65
2022-12-09T11:44:25.162Z,49
2022-12-09T11:45:25.221Z,49.2
2022-12-09T11:46:25.198Z,49.37
2022-12-09T11:47:25.226Z,49.2
2022-12-09T11:48:33.673Z,49.06
2022-12-09T11:49:25.173Z,49.65
2022-12-09T11:50:25.319Z,49.36
2022-12-09T11:51:25.176Z,49.63
2022-12-09T11:52:25.163Z,49.46
2022-12-09T11:53:25.169Z,49.47
2022-12-09T11:54:25.169Z,49.02
2022-12-09T11:55:25.188Z,48.65
2022-12-09T11:56:25.177Z,48.48
2022-12-09T11:57:25.176Z,48.37
2022-12-09T11:58:25.180Z,48.55
2022-12-09T11:59:25.172Z,48.87
2022-12-09T12:00:25.195Z,48.5
2022-12-09T12:01:25.194Z,48.26
2022-12-09T12:02:25.265Z,48.12
2022-12-09T12:03:25.239Z,47.44
2022-12-09T12:04:25.174Z,47.82
2022-12-09T12:05:25.197Z,48.07
2022-12-09T12:06:25.176Z,47.71
2022-12-09T12:07:25.170Z,47.6
2022-12-09T12:08:25.319Z,47.67
2022-12-09T12:09:25.164Z,48.17
2022-12-09T12:10:25.215Z,48.94
2022-12-09T12:11:25.188Z,48.26
2022-12-09T12:12:25.189Z,48.57
2022-12-09T12:13:25.195Z,47.97
2022-12-09T12:14:25.154Z,47.84
2022-12-09T12:15:25.190Z,48.12
2022-12-09T12:16:25.171Z,48.47
2022-12-09T12:17:25.323Z,50.09
2022-12-09T12:18:25.161Z,49.39
2022-12-09T12:19:25.163Z,49.55
2022-12-09T12:20:25.185Z,49.17
2022-12-09T12:21:25.151Z,48.74
2022-12-09T12:22:25.148Z,47.08
2022-12-09T12:23:25.159Z,46.67
2022-12-09T12:24:25.155Z,47.29
2022-12-09T12:25:25.169Z,47.39
2022-12-09T12:26:25.153Z,46.63
2022-12-09T12:27:25.153Z,47.46
2022-12-09T12:28:25.153Z,47.1
2022-12-09T12:29:25.155Z,47.51
2022-12-09T12:30:25.186Z,47.61
2022-12-09T12:31:25.194Z,48.06
2022-12-09T12:32:25.164Z,47.87
2022-12-09T12:34:00.847Z,47.99
2022-12-09T12:34:25.673Z,46.17
2022-12-09T12:35:25.165Z,47.36
2022-12-09T12:36:25.167Z,47.49
2022-12-09T12:37:25.241Z,47.32
2022-12-09T12:38:25.150Z,46.38
2022-12-09T12:39:25.156Z,45.93
2022-12-09T12:40:26.979Z,45.23
2022-12-09T12:41:25.178Z,45.69
2022-12-09T12:42:25.188Z,46.26
2022-12-09T12:43:25.169Z,46.67
2022-12-09T12:44:25.166Z,47.09
2022-12-09T12:45:25.186Z,46.39
2022-12-09T12:46:25.211Z,46.86
2022-12-09T12:47:25.194Z,47.29
2022-12-09T12:48:25.272Z,47.64
2022-12-09T12:49:25.174Z,47.47
2022-12-09T12:50:25.171Z,46.31
2022-12-09T12:51:25.177Z,45.63
2022-12-09T12:53:25.171Z,45.51
2022-12-09T12:54:25.192Z,46.06
2022-12-09T12:55:25.183Z,45.55
2022-12-09T12:56:25.177Z,46.48
2022-12-09T12:57:25.171Z,46.49